sensor_id;sensor_type;location;lat;lon;timestamp;P1;durP1;ratioP1;P2;durP2;ratioP2
17631;SDS011;8934;51.194;17.150;2023-02-15T00:00:47;83.90;;;38.70;;
17631;SDS011;8934;51.194;17.150;2023-02-15T00:03:34;86.50;;;40.50;;
17631;SDS011;8934;51.194;17.150;2023-02-15T00:06:22;98.45;;;40.00;;
17631;SDS011;8934;51.194;17.150;2023-02-15T00:09:10;80.15;;;37.00;;
17631;SDS011;8934;51.194;17.150;2023-02-15T00:11:58;83.43;;;36.28;;
17631;SDS011;8934;51.194;17.150;2023-02-15T00:14:47;76.32;;;35.28;;
17631;SDS011;8934;51.194;17.150;2023-02-15T00:17:35;82.82;;;37.10;;
17631;SDS011;8934;51.194;17.150;2023-02-15T00:20:22;85.00;;;36.13;;
17631;SDS011;8934;51.194;17.150;2023-02-15T00:23:10;79.30;;;34.40;;
17631;SDS011;8934;51.194;17.150;2023-02-15T00:26:05;79.05;;;33.25;;
17631;SDS011;8934;51.194;17.150;2023-02-15T00:28:53;83.50;;;35.45;;
17631;SDS011;8934;51.194;17.150;2023-02-15T00:31:46;82.05;;;35.70;;
17631;SDS011;8934;51.194;17.150;2023-02-15T00:34:34;83.63;;;35.03;;
17631;SDS011;8934;51.194;17.150;2023-02-15T00:37:22;69.47;;;30.65;;
17631;SDS011;8934;51.194;17.150;2023-02-15T00:40:09;74.30;;;34.40;;
17631;SDS011;8934;51.194;17.150;2023-02-15T00:42:57;82.75;;;35.35;;
17631;SDS011;8934;51.194;17.150;2023-02-15T00:45:46;70.50;;;31.73;;
17631;SDS011;8934;51.194;17.150;2023-02-15T00:48:35;80.18;;;34.10;;
17631;SDS011;8934;51.194;17.150;2023-02-15T00:51:22;81.07;;;35.38;;
17631;SDS011;8934;51.194;17.150;2023-02-15T00:54:11;89.15;;;34.75;;
17631;SDS011;8934;51.194;17.150;2023-02-15T00:56:58;72.05;;;31.23;;
17631;SDS011;8934;51.194;17.150;2023-02-15T00:59:46;65.25;;;29.90;;
17631;SDS011;8934;51.194;17.150;2023-02-15T01:02:33;70.15;;;30.20;;
17631;SDS011;8934;51.194;17.150;2023-02-15T01:05:22;72.13;;;32.13;;
17631;SDS011;8934;51.194;17.150;2023-02-15T01:08:10;71.60;;;30.38;;
17631;SDS011;8934;51.194;17.150;2023-02-15T01:11:02;66.03;;;31.83;;
17631;SDS011;8934;51.194;17.150;2023-02-15T01:13:51;67.72;;;30.75;;
17631;SDS011;8934;51.194;17.150;2023-02-15T01:16:41;75.88;;;33.03;;
17631;SDS011;8934;51.194;17.150;2023-02-15T01:19:29;68.25;;;32.08;;
17631;SDS011;8934;51.194;17.150;2023-02-15T01:22:19;70.50;;;32.83;;
17631;SDS011;8934;51.194;17.150;2023-02-15T01:25:06;81.75;;;33.92;;
17631;SDS011;8934;51.194;17.150;2023-02-15T01:27:54;80.75;;;33.88;;
17631;SDS011;8934;51.194;17.150;2023-02-15T01:30:41;73.70;;;32.30;;
17631;SDS011;8934;51.194;17.150;2023-02-15T01:33:29;72.70;;;30.17;;
17631;SDS011;8934;51.194;17.150;2023-02-15T01:36:17;74.95;;;34.35;;
17631;SDS011;8934;51.194;17.150;2023-02-15T01:39:06;83.43;;;34.53;;
17631;SDS011;8934;51.194;17.150;2023-02-15T01:41:56;77.13;;;36.72;;
17631;SDS011;8934;51.194;17.150;2023-02-15T01:44:47;69.95;;;33.05;;
17631;SDS011;8934;51.194;17.150;2023-02-15T01:47:38;70.38;;;32.53;;
17631;SDS011;8934;51.194;17.150;2023-02-15T01:50:30;65.43;;;29.80;;
17631;SDS011;8934;51.194;17.150;2023-02-15T01:53:21;77.45;;;33.55;;
17631;SDS011;8934;51.194;17.150;2023-02-15T01:56:13;73.38;;;33.97;;
17631;SDS011;8934;51.194;17.150;2023-02-15T01:59:08;70.70;;;33.35;;
17631;SDS011;8934;51.194;17.150;2023-02-15T02:02:00;71.30;;;30.38;;
17631;SDS011;8934;51.194;17.150;2023-02-15T02:04:49;75.82;;;35.15;;
17631;SDS011;8934;51.194;17.150;2023-02-15T02:07:39;71.78;;;34.38;;
17631;SDS011;8934;51.194;17.150;2023-02-15T02:10:30;72.68;;;31.83;;
17631;SDS011;8934;51.194;17.150;2023-02-15T02:13:20;76.40;;;34.35;;
17631;SDS011;8934;51.194;17.150;2023-02-15T02:16:09;74.00;;;32.80;;
17631;SDS011;8934;51.194;17.150;2023-02-15T02:19:09;78.97;;;32.35;;
17631;SDS011;8934;51.194;17.150;2023-02-15T02:22:41;74.82;;;34.00;;
17631;SDS011;8934;51.194;17.150;2023-02-15T02:25:59;74.38;;;35.10;;
17631;SDS011;8934;51.194;17.150;2023-02-15T02:29:15;68.75;;;30.77;;
17631;SDS011;8934;51.194;17.150;2023-02-15T02:35:44;89.32;;;33.97;;
17631;SDS011;8934;51.194;17.150;2023-02-15T02:38:42;72.85;;;32.03;;
17631;SDS011;8934;51.194;17.150;2023-02-15T02:41:42;72.35;;;30.80;;
17631;SDS011;8934;51.194;17.150;2023-02-15T02:44:39;69.05;;;29.20;;
17631;SDS011;8934;51.194;17.150;2023-02-15T02:47:31;67.55;;;29.10;;
17631;SDS011;8934;51.194;17.150;2023-02-15T02:50:26;59.88;;;26.65;;
17631;SDS011;8934;51.194;17.150;2023-02-15T02:53:15;64.53;;;27.23;;
17631;SDS011;8934;51.194;17.150;2023-02-15T02:56:04;67.03;;;26.90;;
17631;SDS011;8934;51.194;17.150;2023-02-15T02:58:59;60.42;;;28.52;;
17631;SDS011;8934;51.194;17.150;2023-02-15T03:01:50;69.50;;;30.85;;
17631;SDS011;8934;51.194;17.150;2023-02-15T03:04:43;59.75;;;26.35;;
17631;SDS011;8934;51.194;17.150;2023-02-15T03:07:44;65.00;;;29.10;;
17631;SDS011;8934;51.194;17.150;2023-02-15T03:10:35;57.30;;;26.33;;
17631;SDS011;8934;51.194;17.150;2023-02-15T03:13:26;63.28;;;26.40;;
17631;SDS011;8934;51.194;17.150;2023-02-15T03:16:14;62.38;;;28.00;;
17631;SDS011;8934;51.194;17.150;2023-02-15T03:19:15;58.92;;;26.73;;
17631;SDS011;8934;51.194;17.150;2023-02-15T03:22:10;54.65;;;24.88;;
17631;SDS011;8934;51.194;17.150;2023-02-15T03:25:04;67.30;;;27.23;;
17631;SDS011;8934;51.194;17.150;2023-02-15T03:27:58;61.90;;;26.85;;
17631;SDS011;8934;51.194;17.150;2023-02-15T03:30:49;64.60;;;26.20;;
17631;SDS011;8934;51.194;17.150;2023-02-15T03:33:42;54.67;;;25.30;;
17631;SDS011;8934;51.194;17.150;2023-02-15T03:36:36;50.95;;;24.33;;
17631;SDS011;8934;51.194;17.150;2023-02-15T03:39:30;59.80;;;25.55;;
17631;SDS011;8934;51.194;17.150;2023-02-15T03:42:24;56.75;;;24.50;;
17631;SDS011;8934;51.194;17.150;2023-02-15T03:45:17;55.63;;;23.05;;
17631;SDS011;8934;51.194;17.150;2023-02-15T03:48:10;61.00;;;27.33;;
17631;SDS011;8934;51.194;17.150;2023-02-15T03:50:58;69.30;;;25.77;;
17631;SDS011;8934;51.194;17.150;2023-02-15T03:54:07;56.22;;;24.63;;
17631;SDS011;8934;51.194;17.150;2023-02-15T03:56:56;57.90;;;25.58;;
17631;SDS011;8934;51.194;17.150;2023-02-15T04:00:00;60.25;;;26.13;;
17631;SDS011;8934;51.194;17.150;2023-02-15T04:03:11;62.47;;;25.08;;
17631;SDS011;8934;51.194;17.150;2023-02-15T04:06:08;55.25;;;23.23;;
17631;SDS011;8934;51.194;17.150;2023-02-15T04:08:56;60.38;;;25.48;;
17631;SDS011;8934;51.194;17.150;2023-02-15T04:12:01;62.28;;;26.58;;
17631;SDS011;8934;51.194;17.150;2023-02-15T04:14:49;61.22;;;24.83;;
17631;SDS011;8934;51.194;17.150;2023-02-15T04:17:55;60.78;;;25.92;;
17631;SDS011;8934;51.194;17.150;2023-02-15T04:20:43;61.90;;;25.60;;
17631;SDS011;8934;51.194;17.150;2023-02-15T04:23:48;64.57;;;24.42;;
17631;SDS011;8934;51.194;17.150;2023-02-15T04:26:52;65.05;;;25.80;;
17631;SDS011;8934;51.194;17.150;2023-02-15T04:29:41;58.95;;;24.00;;
17631;SDS011;8934;51.194;17.150;2023-02-15T04:32:28;67.15;;;26.58;;
17631;SDS011;8934;51.194;17.150;2023-02-15T04:35:18;62.03;;;25.85;;
17631;SDS011;8934;51.194;17.150;2023-02-15T04:38:06;69.25;;;26.38;;
17631;SDS011;8934;51.194;17.150;2023-02-15T04:40:53;70.68;;;28.00;;
17631;SDS011;8934;51.194;17.150;2023-02-15T04:43:41;67.43;;;27.10;;
17631;SDS011;8934;51.194;17.150;2023-02-15T04:46:29;79.82;;;28.67;;
17631;SDS011;8934;51.194;17.150;2023-02-15T04:49:16;72.70;;;27.50;;
17631;SDS011;8934;51.194;17.150;2023-02-15T04:52:05;69.10;;;28.60;;
17631;SDS011;8934;51.194;17.150;2023-02-15T04:54:53;67.82;;;26.63;;
17631;SDS011;8934;51.194;17.150;2023-02-15T04:57:41;62.08;;;26.20;;
17631;SDS011;8934;51.194;17.150;2023-02-15T05:00:28;71.82;;;26.42;;
17631;SDS011;8934;51.194;17.150;2023-02-15T05:03:16;70.47;;;30.27;;
17631;SDS011;8934;51.194;17.150;2023-02-15T05:06:04;67.25;;;28.48;;
17631;SDS011;8934;51.194;17.150;2023-02-15T05:08:53;63.97;;;26.55;;
17631;SDS011;8934;51.194;17.150;2023-02-15T05:11:41;64.45;;;27.92;;
17631;SDS011;8934;51.194;17.150;2023-02-15T05:14:32;69.20;;;26.15;;
17631;SDS011;8934;51.194;17.150;2023-02-15T05:17:19;60.25;;;27.13;;
17631;SDS011;8934;51.194;17.150;2023-02-15T05:20:07;57.30;;;26.23;;
17631;SDS011;8934;51.194;17.150;2023-02-15T05:22:55;65.22;;;27.05;;
17631;SDS011;8934;51.194;17.150;2023-02-15T05:25:47;65.57;;;27.33;;
17631;SDS011;8934;51.194;17.150;2023-02-15T05:28:52;64.18;;;27.25;;
17631;SDS011;8934;51.194;17.150;2023-02-15T05:31:40;61.03;;;25.42;;
17631;SDS011;8934;51.194;17.150;2023-02-15T05:34:33;60.55;;;23.20;;
17631;SDS011;8934;51.194;17.150;2023-02-15T05:37:20;62.65;;;25.38;;
17631;SDS011;8934;51.194;17.150;2023-02-15T05:40:08;64.72;;;25.50;;
17631;SDS011;8934;51.194;17.150;2023-02-15T05:42:57;56.70;;;23.92;;
17631;SDS011;8934;51.194;17.150;2023-02-15T05:45:45;63.95;;;25.88;;
17631;SDS011;8934;51.194;17.150;2023-02-15T05:48:32;58.97;;;23.65;;
17631;SDS011;8934;51.194;17.150;2023-02-15T05:51:21;51.75;;;22.77;;
17631;SDS011;8934;51.194;17.150;2023-02-15T05:54:08;56.22;;;24.08;;
17631;SDS011;8934;51.194;17.150;2023-02-15T05:56:56;53.70;;;23.98;;
17631;SDS011;8934;51.194;17.150;2023-02-15T05:59:45;52.05;;;23.00;;
17631;SDS011;8934;51.194;17.150;2023-02-15T06:02:33;57.50;;;25.38;;
17631;SDS011;8934;51.194;17.150;2023-02-15T06:05:21;56.70;;;24.05;;
17631;SDS011;8934;51.194;17.150;2023-02-15T06:08:09;57.80;;;23.60;;
17631;SDS011;8934;51.194;17.150;2023-02-15T06:10:56;64.30;;;25.45;;
17631;SDS011;8934;51.194;17.150;2023-02-15T06:13:44;57.45;;;23.83;;
17631;SDS011;8934;51.194;17.150;2023-02-15T06:16:33;65.18;;;25.58;;
17631;SDS011;8934;51.194;17.150;2023-02-15T06:19:20;72.70;;;29.85;;
17631;SDS011;8934;51.194;17.150;2023-02-15T06:22:09;70.68;;;29.95;;
17631;SDS011;8934;51.194;17.150;2023-02-15T06:24:59;71.10;;;30.05;;
17631;SDS011;8934;51.194;17.150;2023-02-15T06:27:47;84.72;;;33.17;;
17631;SDS011;8934;51.194;17.150;2023-02-15T06:30:35;85.57;;;35.92;;
17631;SDS011;8934;51.194;17.150;2023-02-15T06:33:24;72.57;;;33.38;;
17631;SDS011;8934;51.194;17.150;2023-02-15T06:36:12;79.30;;;32.28;;
17631;SDS011;8934;51.194;17.150;2023-02-15T06:38:59;76.43;;;31.50;;
17631;SDS011;8934;51.194;17.150;2023-02-15T06:41:47;72.07;;;29.65;;
17631;SDS011;8934;51.194;17.150;2023-02-15T06:44:35;69.50;;;26.52;;
17631;SDS011;8934;51.194;17.150;2023-02-15T06:47:23;69.55;;;28.00;;
17631;SDS011;8934;51.194;17.150;2023-02-15T06:50:12;68.47;;;27.33;;
17631;SDS011;8934;51.194;17.150;2023-02-15T06:52:59;70.47;;;28.88;;
17631;SDS011;8934;51.194;17.150;2023-02-15T06:55:47;70.30;;;27.08;;
17631;SDS011;8934;51.194;17.150;2023-02-15T06:58:34;69.82;;;29.15;;
17631;SDS011;8934;51.194;17.150;2023-02-15T07:01:21;69.70;;;27.40;;
17631;SDS011;8934;51.194;17.150;2023-02-15T07:04:09;66.82;;;26.73;;
17631;SDS011;8934;51.194;17.150;2023-02-15T07:06:58;68.75;;;28.60;;
17631;SDS011;8934;51.194;17.150;2023-02-15T07:09:46;66.65;;;29.75;;
17631;SDS011;8934;51.194;17.150;2023-02-15T07:12:33;75.18;;;29.50;;
17631;SDS011;8934;51.194;17.150;2023-02-15T07:15:31;67.88;;;28.73;;
17631;SDS011;8934;51.194;17.150;2023-02-15T07:18:18;70.00;;;28.95;;
17631;SDS011;8934;51.194;17.150;2023-02-15T07:21:06;68.93;;;29.60;;
17631;SDS011;8934;51.194;17.150;2023-02-15T07:23:56;64.30;;;27.55;;
17631;SDS011;8934;51.194;17.150;2023-02-15T07:26:45;67.88;;;28.67;;
17631;SDS011;8934;51.194;17.150;2023-02-15T07:29:32;84.15;;;35.13;;
17631;SDS011;8934;51.194;17.150;2023-02-15T07:32:20;82.22;;;32.05;;
17631;SDS011;8934;51.194;17.150;2023-02-15T07:35:08;101.22;;;37.25;;
17631;SDS011;8934;51.194;17.150;2023-02-15T07:37:55;90.13;;;35.28;;
17631;SDS011;8934;51.194;17.150;2023-02-15T07:40:44;91.13;;;35.20;;
17631;SDS011;8934;51.194;17.150;2023-02-15T07:43:33;94.65;;;37.45;;
17631;SDS011;8934;51.194;17.150;2023-02-15T07:46:21;102.63;;;39.78;;
17631;SDS011;8934;51.194;17.150;2023-02-15T07:49:09;96.80;;;39.20;;
17631;SDS011;8934;51.194;17.150;2023-02-15T07:51:57;97.28;;;38.40;;
17631;SDS011;8934;51.194;17.150;2023-02-15T07:54:44;95.70;;;36.92;;
17631;SDS011;8934;51.194;17.150;2023-02-15T07:57:33;98.15;;;35.60;;
17631;SDS011;8934;51.194;17.150;2023-02-15T08:00:21;89.72;;;35.35;;
17631;SDS011;8934;51.194;17.150;2023-02-15T08:03:10;89.72;;;35.53;;
17631;SDS011;8934;51.194;17.150;2023-02-15T08:06:01;93.97;;;34.53;;
17631;SDS011;8934;51.194;17.150;2023-02-15T08:08:49;83.10;;;33.42;;
17631;SDS011;8934;51.194;17.150;2023-02-15T08:11:37;80.63;;;32.63;;
17631;SDS011;8934;51.194;17.150;2023-02-15T08:14:27;77.20;;;31.77;;
17631;SDS011;8934;51.194;17.150;2023-02-15T08:17:15;78.38;;;31.00;;
17631;SDS011;8934;51.194;17.150;2023-02-15T08:20:03;74.55;;;31.48;;
17631;SDS011;8934;51.194;17.150;2023-02-15T08:22:51;71.80;;;29.42;;
17631;SDS011;8934;51.194;17.150;2023-02-15T08:25:38;69.32;;;29.60;;
17631;SDS011;8934;51.194;17.150;2023-02-15T08:28:26;60.25;;;27.52;;
17631;SDS011;8934;51.194;17.150;2023-02-15T08:31:14;70.05;;;28.20;;
17631;SDS011;8934;51.194;17.150;2023-02-15T08:34:03;61.55;;;26.25;;
17631;SDS011;8934;51.194;17.150;2023-02-15T08:36:51;66.45;;;25.90;;
17631;SDS011;8934;51.194;17.150;2023-02-15T08:39:38;63.33;;;25.45;;
17631;SDS011;8934;51.194;17.150;2023-02-15T08:42:27;56.70;;;25.27;;
17631;SDS011;8934;51.194;17.150;2023-02-15T08:45:15;51.60;;;24.45;;
17631;SDS011;8934;51.194;17.150;2023-02-15T08:48:04;56.13;;;26.08;;
17631;SDS011;8934;51.194;17.150;2023-02-15T08:50:51;46.97;;;22.55;;
17631;SDS011;8934;51.194;17.150;2023-02-15T08:53:40;50.92;;;23.00;;
17631;SDS011;8934;51.194;17.150;2023-02-15T08:56:31;53.50;;;22.90;;
17631;SDS011;8934;51.194;17.150;2023-02-15T08:59:20;50.58;;;23.95;;
17631;SDS011;8934;51.194;17.150;2023-02-15T09:02:10;53.13;;;22.65;;
17631;SDS011;8934;51.194;17.150;2023-02-15T09:04:59;43.38;;;21.98;;
17631;SDS011;8934;51.194;17.150;2023-02-15T09:07:47;44.80;;;21.90;;
17631;SDS011;8934;51.194;17.150;2023-02-15T09:10:34;45.70;;;22.25;;
17631;SDS011;8934;51.194;17.150;2023-02-15T09:13:22;45.50;;;21.48;;
17631;SDS011;8934;51.194;17.150;2023-02-15T09:16:09;45.53;;;21.13;;
17631;SDS011;8934;51.194;17.150;2023-02-15T09:18:57;42.97;;;21.08;;
17631;SDS011;8934;51.194;17.150;2023-02-15T09:21:46;41.40;;;20.40;;
17631;SDS011;8934;51.194;17.150;2023-02-15T09:24:34;41.17;;;20.27;;
17631;SDS011;8934;51.194;17.150;2023-02-15T09:27:21;45.35;;;21.70;;
17631;SDS011;8934;51.194;17.150;2023-02-15T09:30:09;39.40;;;19.77;;
17631;SDS011;8934;51.194;17.150;2023-02-15T09:32:57;41.78;;;19.48;;
17631;SDS011;8934;51.194;17.150;2023-02-15T09:35:45;41.40;;;20.50;;
17631;SDS011;8934;51.194;17.150;2023-02-15T09:38:34;43.95;;;20.88;;
17631;SDS011;8934;51.194;17.150;2023-02-15T09:41:30;39.85;;;18.88;;
17631;SDS011;8934;51.194;17.150;2023-02-15T09:48:01;41.72;;;19.33;;
17631;SDS011;8934;51.194;17.150;2023-02-15T09:51:13;41.00;;;19.48;;
17631;SDS011;8934;51.194;17.150;2023-02-15T09:54:26;44.47;;;20.08;;
17631;SDS011;8934;51.194;17.150;2023-02-15T09:57:23;40.17;;;21.13;;
17631;SDS011;8934;51.194;17.150;2023-02-15T10:00:18;42.85;;;20.08;;
17631;SDS011;8934;51.194;17.150;2023-02-15T10:03:25;47.15;;;22.35;;
17631;SDS011;8934;51.194;17.150;2023-02-15T10:06:32;44.92;;;20.27;;
17631;SDS011;8934;51.194;17.150;2023-02-15T10:09:38;43.28;;;20.73;;
17631;SDS011;8934;51.194;17.150;2023-02-15T10:12:39;42.47;;;21.08;;
17631;SDS011;8934;51.194;17.150;2023-02-15T10:15:41;38.78;;;19.88;;
17631;SDS011;8934;51.194;17.150;2023-02-15T10:18:40;38.63;;;19.00;;
17631;SDS011;8934;51.194;17.150;2023-02-15T10:21:39;42.80;;;20.52;;
17631;SDS011;8934;51.194;17.150;2023-02-15T10:24:46;38.78;;;19.92;;
17631;SDS011;8934;51.194;17.150;2023-02-15T10:27:44;36.70;;;19.85;;
17631;SDS011;8934;51.194;17.150;2023-02-15T10:30:36;37.45;;;19.20;;
17631;SDS011;8934;51.194;17.150;2023-02-15T10:33:37;39.65;;;20.40;;
17631;SDS011;8934;51.194;17.150;2023-02-15T10:36:28;40.30;;;20.40;;
17631;SDS011;8934;51.194;17.150;2023-02-15T10:39:28;36.85;;;20.20;;
17631;SDS011;8934;51.194;17.150;2023-02-15T10:42:29;39.30;;;20.90;;
17631;SDS011;8934;51.194;17.150;2023-02-15T10:45:25;40.95;;;19.88;;
17631;SDS011;8934;51.194;17.150;2023-02-15T10:48:23;36.70;;;19.27;;
17631;SDS011;8934;51.194;17.150;2023-02-15T10:51:28;38.63;;;21.35;;
17631;SDS011;8934;51.194;17.150;2023-02-15T10:54:28;35.38;;;18.73;;
17631;SDS011;8934;51.194;17.150;2023-02-15T10:57:24;38.50;;;20.65;;
17631;SDS011;8934;51.194;17.150;2023-02-15T11:00:22;36.50;;;18.45;;
17631;SDS011;8934;51.194;17.150;2023-02-15T11:03:23;41.38;;;20.15;;
17631;SDS011;8934;51.194;17.150;2023-02-15T11:06:34;35.25;;;18.92;;
17631;SDS011;8934;51.194;17.150;2023-02-15T11:09:33;38.42;;;20.20;;
17631;SDS011;8934;51.194;17.150;2023-02-15T11:12:28;40.75;;;20.15;;
17631;SDS011;8934;51.194;17.150;2023-02-15T11:15:19;38.30;;;20.23;;
17631;SDS011;8934;51.194;17.150;2023-02-15T11:18:12;42.00;;;21.55;;
17631;SDS011;8934;51.194;17.150;2023-02-15T11:21:04;41.05;;;21.05;;
17631;SDS011;8934;51.194;17.150;2023-02-15T11:23:55;41.80;;;21.48;;
17631;SDS011;8934;51.194;17.150;2023-02-15T11:26:43;40.03;;;21.13;;
17631;SDS011;8934;51.194;17.150;2023-02-15T11:29:37;37.42;;;20.05;;
17631;SDS011;8934;51.194;17.150;2023-02-15T11:32:29;46.13;;;21.52;;
17631;SDS011;8934;51.194;17.150;2023-02-15T11:35:20;44.75;;;22.63;;
17631;SDS011;8934;51.194;17.150;2023-02-15T11:38:14;40.53;;;20.98;;
17631;SDS011;8934;51.194;17.150;2023-02-15T11:41:07;44.70;;;22.60;;
17631;SDS011;8934;51.194;17.150;2023-02-15T11:43:58;36.95;;;20.77;;
17631;SDS011;8934;51.194;17.150;2023-02-15T11:46:53;46.50;;;23.63;;
17631;SDS011;8934;51.194;17.150;2023-02-15T11:49:41;39.45;;;21.98;;
17631;SDS011;8934;51.194;17.150;2023-02-15T11:52:29;40.17;;;19.85;;
17631;SDS011;8934;51.194;17.150;2023-02-15T11:55:18;38.55;;;20.98;;
17631;SDS011;8934;51.194;17.150;2023-02-15T11:58:19;36.80;;;21.13;;
17631;SDS011;8934;51.194;17.150;2023-02-15T12:01:15;40.67;;;21.30;;
17631;SDS011;8934;51.194;17.150;2023-02-15T12:04:09;46.20;;;22.33;;
17631;SDS011;8934;51.194;17.150;2023-02-15T12:07:03;43.00;;;23.55;;
17631;SDS011;8934;51.194;17.150;2023-02-15T12:10:02;44.30;;;23.10;;
17631;SDS011;8934;51.194;17.150;2023-02-15T12:13:08;40.22;;;21.65;;
17631;SDS011;8934;51.194;17.150;2023-02-15T12:15:57;40.65;;;22.67;;
17631;SDS011;8934;51.194;17.150;2023-02-15T12:18:53;44.05;;;21.33;;
17631;SDS011;8934;51.194;17.150;2023-02-15T12:21:44;39.33;;;20.75;;
17631;SDS011;8934;51.194;17.150;2023-02-15T12:24:37;42.95;;;22.02;;
17631;SDS011;8934;51.194;17.150;2023-02-15T12:27:32;42.33;;;22.33;;
17631;SDS011;8934;51.194;17.150;2023-02-15T12:30:22;43.83;;;21.65;;
17631;SDS011;8934;51.194;17.150;2023-02-15T12:33:15;45.13;;;22.92;;
17631;SDS011;8934;51.194;17.150;2023-02-15T12:36:09;39.80;;;22.13;;
17631;SDS011;8934;51.194;17.150;2023-02-15T12:39:05;42.38;;;21.98;;
17631;SDS011;8934;51.194;17.150;2023-02-15T12:42:14;42.38;;;22.13;;
17631;SDS011;8934;51.194;17.150;2023-02-15T12:45:20;41.95;;;23.70;;
17631;SDS011;8934;51.194;17.150;2023-02-15T12:48:15;42.63;;;22.38;;
17631;SDS011;8934;51.194;17.150;2023-02-15T12:51:06;39.88;;;22.95;;
17631;SDS011;8934;51.194;17.150;2023-02-15T12:53:56;40.08;;;21.55;;
17631;SDS011;8934;51.194;17.150;2023-02-15T12:56:48;47.20;;;24.27;;
17631;SDS011;8934;51.194;17.150;2023-02-15T12:59:35;49.15;;;24.60;;
17631;SDS011;8934;51.194;17.150;2023-02-15T13:02:28;47.47;;;24.80;;
17631;SDS011;8934;51.194;17.150;2023-02-15T13:05:21;47.03;;;24.77;;
17631;SDS011;8934;51.194;17.150;2023-02-15T13:08:13;46.63;;;23.13;;
17631;SDS011;8934;51.194;17.150;2023-02-15T13:11:03;50.33;;;24.15;;
17631;SDS011;8934;51.194;17.150;2023-02-15T13:13:57;47.30;;;24.08;;
17631;SDS011;8934;51.194;17.150;2023-02-15T13:16:47;42.00;;;23.20;;
17631;SDS011;8934;51.194;17.150;2023-02-15T13:19:39;43.83;;;23.15;;
17631;SDS011;8934;51.194;17.150;2023-02-15T13:22:32;41.63;;;23.00;;
17631;SDS011;8934;51.194;17.150;2023-02-15T13:25:25;42.28;;;21.65;;
17631;SDS011;8934;51.194;17.150;2023-02-15T13:28:16;42.53;;;22.52;;
17631;SDS011;8934;51.194;17.150;2023-02-15T13:31:12;42.22;;;22.35;;
17631;SDS011;8934;51.194;17.150;2023-02-15T13:34:02;43.22;;;23.63;;
17631;SDS011;8934;51.194;17.150;2023-02-15T13:36:57;44.42;;;22.42;;
17631;SDS011;8934;51.194;17.150;2023-02-15T13:39:54;39.42;;;21.85;;
17631;SDS011;8934;51.194;17.150;2023-02-15T13:42:49;41.25;;;22.17;;
17631;SDS011;8934;51.194;17.150;2023-02-15T13:45:44;48.55;;;24.20;;
17631;SDS011;8934;51.194;17.150;2023-02-15T13:48:51;44.00;;;22.00;;
17631;SDS011;8934;51.194;17.150;2023-02-15T13:51:48;43.60;;;23.63;;
17631;SDS011;8934;51.194;17.150;2023-02-15T13:54:51;41.63;;;21.83;;
17631;SDS011;8934;51.194;17.150;2023-02-15T13:57:54;39.38;;;20.88;;
17631;SDS011;8934;51.194;17.150;2023-02-15T14:00:58;38.67;;;20.77;;
17631;SDS011;8934;51.194;17.150;2023-02-15T14:04:03;40.53;;;20.83;;
17631;SDS011;8934;51.194;17.150;2023-02-15T14:07:16;38.55;;;21.05;;
17631;SDS011;8934;51.194;17.150;2023-02-15T14:13:43;38.55;;;20.55;;
17631;SDS011;8934;51.194;17.150;2023-02-15T14:16:49;38.58;;;20.90;;
17631;SDS011;8934;51.194;17.150;2023-02-15T14:19:54;33.45;;;18.33;;
17631;SDS011;8934;51.194;17.150;2023-02-15T14:22:44;39.80;;;21.60;;
17631;SDS011;8934;51.194;17.150;2023-02-15T14:25:38;42.90;;;20.90;;
17631;SDS011;8934;51.194;17.150;2023-02-15T14:28:31;37.97;;;20.35;;
17631;SDS011;8934;51.194;17.150;2023-02-15T14:34:18;40.42;;;21.17;;
17631;SDS011;8934;51.194;17.150;2023-02-15T14:37:11;41.42;;;20.70;;
17631;SDS011;8934;51.194;17.150;2023-02-15T14:40:00;35.65;;;18.98;;
17631;SDS011;8934;51.194;17.150;2023-02-15T14:43:11;37.92;;;19.90;;
17631;SDS011;8934;51.194;17.150;2023-02-15T14:46:07;39.58;;;20.05;;
17631;SDS011;8934;51.194;17.150;2023-02-15T14:49:04;39.80;;;20.52;;
17631;SDS011;8934;51.194;17.150;2023-02-15T14:51:58;39.22;;;20.70;;
17631;SDS011;8934;51.194;17.150;2023-02-15T14:55:01;36.30;;;19.73;;
17631;SDS011;8934;51.194;17.150;2023-02-15T14:57:55;43.45;;;22.00;;
17631;SDS011;8934;51.194;17.150;2023-02-15T15:00:44;39.67;;;19.55;;
17631;SDS011;8934;51.194;17.150;2023-02-15T15:03:31;37.35;;;19.60;;
17631;SDS011;8934;51.194;17.150;2023-02-15T15:06:23;37.28;;;20.35;;
17631;SDS011;8934;51.194;17.150;2023-02-15T15:09:18;33.88;;;18.77;;
17631;SDS011;8934;51.194;17.150;2023-02-15T15:12:15;40.47;;;20.50;;
17631;SDS011;8934;51.194;17.150;2023-02-15T15:15:32;38.33;;;19.83;;
17631;SDS011;8934;51.194;17.150;2023-02-15T15:24:51;41.38;;;19.95;;
17631;SDS011;8934;51.194;17.150;2023-02-15T15:27:42;41.42;;;19.23;;
17631;SDS011;8934;51.194;17.150;2023-02-15T15:37:23;42.22;;;20.48;;
17631;SDS011;8934;51.194;17.150;2023-02-15T15:40:41;36.58;;;19.70;;
17631;SDS011;8934;51.194;17.150;2023-02-15T15:44:11;35.42;;;17.67;;
17631;SDS011;8934;51.194;17.150;2023-02-15T15:47:29;37.08;;;18.35;;
17631;SDS011;8934;51.194;17.150;2023-02-15T15:50:26;38.35;;;19.80;;
17631;SDS011;8934;51.194;17.150;2023-02-15T15:53:15;37.53;;;18.95;;
17631;SDS011;8934;51.194;17.150;2023-02-15T15:56:08;39.10;;;19.98;;
17631;SDS011;8934;51.194;17.150;2023-02-15T15:58:59;36.90;;;19.23;;
17631;SDS011;8934;51.194;17.150;2023-02-15T16:01:50;44.00;;;21.30;;
17631;SDS011;8934;51.194;17.150;2023-02-15T16:04:38;41.97;;;20.08;;
17631;SDS011;8934;51.194;17.150;2023-02-15T16:07:25;45.78;;;21.17;;
17631;SDS011;8934;51.194;17.150;2023-02-15T16:10:21;47.28;;;21.50;;
17631;SDS011;8934;51.194;17.150;2023-02-15T16:13:11;46.58;;;22.77;;
17631;SDS011;8934;51.194;17.150;2023-02-15T16:16:01;47.20;;;22.27;;
17631;SDS011;8934;51.194;17.150;2023-02-15T16:18:51;43.22;;;20.10;;
17631;SDS011;8934;51.194;17.150;2023-02-15T16:21:39;43.97;;;19.75;;
17631;SDS011;8934;51.194;17.150;2023-02-15T16:24:38;42.88;;;20.40;;
17631;SDS011;8934;51.194;17.150;2023-02-15T16:27:41;41.22;;;19.75;;
17631;SDS011;8934;51.194;17.150;2023-02-15T16:30:30;39.35;;;17.60;;
17631;SDS011;8934;51.194;17.150;2023-02-15T16:33:19;40.15;;;18.63;;
17631;SDS011;8934;51.194;17.150;2023-02-15T16:36:11;48.97;;;21.30;;
17631;SDS011;8934;51.194;17.150;2023-02-15T16:39:06;47.80;;;21.48;;
17631;SDS011;8934;51.194;17.150;2023-02-15T16:42:04;40.85;;;19.90;;
17631;SDS011;8934;51.194;17.150;2023-02-15T16:44:54;42.00;;;20.60;;
17631;SDS011;8934;51.194;17.150;2023-02-15T16:47:46;43.00;;;20.15;;
17631;SDS011;8934;51.194;17.150;2023-02-15T16:50:37;38.38;;;18.58;;
17631;SDS011;8934;51.194;17.150;2023-02-15T16:53:27;50.67;;;20.88;;
17631;SDS011;8934;51.194;17.150;2023-02-15T16:56:15;40.47;;;19.17;;
17631;SDS011;8934;51.194;17.150;2023-02-15T16:59:14;41.60;;;21.88;;
17631;SDS011;8934;51.194;17.150;2023-02-15T17:02:11;40.22;;;18.40;;
17631;SDS011;8934;51.194;17.150;2023-02-15T17:05:22;44.40;;;20.45;;
17631;SDS011;8934;51.194;17.150;2023-02-15T17:08:13;41.92;;;20.60;;
17631;SDS011;8934;51.194;17.150;2023-02-15T17:11:12;43.58;;;19.48;;
17631;SDS011;8934;51.194;17.150;2023-02-15T17:14:21;46.67;;;21.55;;
17631;SDS011;8934;51.194;17.150;2023-02-15T17:17:13;50.85;;;22.48;;